createdAt,value
2022-10-11T00:00:54.621Z,8.67
2022-10-11T00:03:23.008Z,8.67
2022-10-11T00:05:54.041Z,8.69
2022-10-11T00:08:22.849Z,8.63
2022-10-11T00:10:58.266Z,8.71
2022-10-11T00:13:26.704Z,8.69
2022-10-11T00:15:54.974Z,8.66
2022-10-11T00:18:24.068Z,8.48
2022-10-11T00:21:02.072Z,8.60
2022-10-11T00:23:30.366Z,8.41
2022-10-11T00:25:59.708Z,8.56
2022-10-11T00:28:28.079Z,8.58
2022-10-11T00:30:56.361Z,8.50
2022-10-11T00:33:24.861Z,8.46
2022-10-11T00:35:54.432Z,8.51
2022-10-11T00:38:22.728Z,8.46
2022-10-11T00:40:51.254Z,8.44
2022-10-11T00:43:20.328Z,8.43
2022-10-11T00:46:01.012Z,8.47
2022-10-11T00:48:31.832Z,8.45
2022-10-11T00:51:02.157Z,8.48
2022-10-11T00:53:30.735Z,8.43
2022-10-11T00:56:02.155Z,8.41
2022-10-11T00:58:30.929Z,8.38
2022-10-11T01:00:59.210Z,8.34
2022-10-11T01:03:32.186Z,8.41
2022-10-11T01:06:03.840Z,8.41
2022-10-11T01:08:32.408Z,8.21
2022-10-11T01:11:00.648Z,8.20
2022-10-11T01:13:37.370Z,8.26
2022-10-11T01:16:09.503Z,8.26
2022-10-11T01:18:42.177Z,8.29
2022-10-11T01:21:13.420Z,8.26
2022-10-11T01:23:56.968Z,8.32
2022-10-11T01:26:35.679Z,8.24
2022-10-11T01:29:10.269Z,8.28
2022-10-11T01:31:40.515Z,8.31
2022-10-11T01:34:12.250Z,8.27
2022-10-11T01:36:42.165Z,8.24
2022-10-11T01:39:11.617Z,8.24
2022-10-11T01:41:41.829Z,8.23
2022-10-11T01:44:10.412Z,8.19
2022-10-11T01:46:40.045Z,8.12
2022-10-11T01:49:08.295Z,8.06
2022-10-11T01:51:38.860Z,8.01
2022-10-11T01:54:20.663Z,7.98
2022-10-11T01:56:58.054Z,7.92
2022-10-11T01:59:33.857Z,7.93
2022-10-11T02:02:06.952Z,7.88
2022-10-11T02:04:36.483Z,7.88
2022-10-11T02:07:07.731Z,7.84
2022-10-11T02:09:37.712Z,7.85
2022-10-11T02:12:08.772Z,7.80
2022-10-11T02:14:38.529Z,7.80
2022-10-11T02:17:10.212Z,7.79
2022-10-11T02:19:39.849Z,7.77
2022-10-11T02:22:09.626Z,7.73
2022-10-11T02:24:39.185Z,7.72
2022-10-11T02:27:07.763Z,7.76
2022-10-11T02:29:37.849Z,7.72
2022-10-11T02:32:06.430Z,7.71
2022-10-11T02:34:37.812Z,7.72
2022-10-11T02:37:07.352Z,7.72
2022-10-11T02:39:41.469Z,7.76
2022-10-11T02:42:12.649Z,7.75
2022-10-11T02:44:44.167Z,7.62
2022-10-11T02:47:12.639Z,7.71
2022-10-11T02:49:42.257Z,7.73
2022-10-11T02:52:10.598Z,7.74
2022-10-11T02:54:38.806Z,7.68
2022-10-11T02:57:07.011Z,7.73
2022-10-11T02:59:35.225Z,7.71
2022-10-11T03:02:03.489Z,7.61
2022-10-11T03:04:31.728Z,7.66
2022-10-11T03:07:01.337Z,7.63
2022-10-11T03:09:29.802Z,7.66
2022-10-11T03:11:57.982Z,7.61
2022-10-11T03:14:26.339Z,7.47
2022-10-11T03:16:54.511Z,7.64
2022-10-11T03:19:23.070Z,7.63
2022-10-11T03:21:51.265Z,7.68
2022-10-11T03:24:20.884Z,7.63
2022-10-11T03:26:49.108Z,7.65
2022-10-11T03:29:17.318Z,7.62
2022-10-11T03:31:45.525Z,7.62
2022-10-11T03:34:13.730Z,7.58
2022-10-11T03:36:42.201Z,7.60
2022-10-11T03:39:10.466Z,7.50
2022-10-11T03:41:40.049Z,7.58
2022-10-11T03:44:08.279Z,7.57
2022-10-11T03:46:36.484Z,7.60
2022-10-11T03:49:04.714Z,7.46
2022-10-11T03:51:33.104Z,7.48
2022-10-11T03:54:01.292Z,7.48
2022-10-11T03:56:29.499Z,7.55
2022-10-11T03:58:59.061Z,7.50
2022-10-11T04:01:27.269Z,7.50
2022-10-11T04:03:57.176Z,7.49
2022-10-11T04:06:25.695Z,7.45
2022-10-11T04:08:53.910Z,7.44
2022-10-11T04:11:24.428Z,7.42
2022-10-11T04:13:52.652Z,7.28
2022-10-11T04:16:22.248Z,7.30
2022-10-11T04:18:50.459Z,7.34
2022-10-11T04:21:18.811Z,7.28
2022-10-11T04:23:48.302Z,7.26
2022-10-11T04:26:16.519Z,7.23
2022-10-11T04:28:47.031Z,7.11
2022-10-11T04:31:15.291Z,7.20
2022-10-11T04:33:45.180Z,7.00
2022-10-11T04:36:13.379Z,7.12
2022-10-11T04:38:41.700Z,7.14
2022-10-11T04:41:10.670Z,7.11
2022-10-11T04:43:38.902Z,7.09
2022-10-11T04:46:07.376Z,7.12
2022-10-11T04:48:38.822Z,7.03
2022-10-11T04:51:08.879Z,6.99
2022-10-11T04:53:37.098Z,6.96
2022-10-11T04:56:06.500Z,6.98
2022-10-11T04:58:35.791Z,6.91
2022-10-11T05:01:04.072Z,6.87
2022-10-11T05:03:32.403Z,6.85
2022-10-11T05:06:05.245Z,6.87
2022-10-11T05:08:35.387Z,6.88
2022-10-11T05:11:04.511Z,6.81
2022-10-11T05:13:32.821Z,6.80
2022-10-11T05:16:01.083Z,6.79
2022-10-11T05:18:29.656Z,6.71
2022-10-11T05:21:01.778Z,6.78
2022-10-11T05:23:30.188Z,6.76
2022-10-11T05:25:59.795Z,6.76
2022-10-11T05:28:28.346Z,6.78
2022-10-11T05:30:56.658Z,6.81
2022-10-11T05:33:24.848Z,6.80
2022-10-11T05:36:11.868Z,6.81
2022-10-11T05:38:40.116Z,6.81
2022-10-11T05:41:10.339Z,6.86
2022-10-11T05:43:38.797Z,6.80
2022-10-11T05:46:07.720Z,6.83
2022-10-11T05:48:36.373Z,6.84
2022-10-11T05:51:09.262Z,6.79
2022-10-11T05:53:37.995Z,6.84
2022-10-11T05:56:07.216Z,6.85
2022-10-11T05:58:36.980Z,6.89
2022-10-11T06:01:06.973Z,6.88
2022-10-11T06:03:35.209Z,6.92
2022-10-11T06:06:03.701Z,6.99
2022-10-11T06:08:33.796Z,6.95
2022-10-11T06:11:12.120Z,6.96
2022-10-11T06:13:42.244Z,7.01
2022-10-11T06:16:10.455Z,6.98
2022-10-11T06:18:38.693Z,7.01
2022-10-11T06:21:07.185Z,7.04
2022-10-11T06:23:35.679Z,7.12
2022-10-11T06:26:06.152Z,7.21
2022-10-11T06:28:35.080Z,7.14
2022-10-11T06:31:06.276Z,7.17
2022-10-11T06:33:34.472Z,7.22
2022-10-11T06:36:03.822Z,7.26
2022-10-11T06:38:50.825Z,7.35
2022-10-11T06:41:20.041Z,7.37
2022-10-11T06:43:49.583Z,7.43
2022-10-11T06:46:21.536Z,7.47
2022-10-11T06:48:50.153Z,7.44
2022-10-11T06:51:19.686Z,7.60
2022-10-11T06:53:50.242Z,7.66
2022-10-11T06:56:18.621Z,7.73
2022-10-11T06:58:46.872Z,7.81
2022-10-11T07:01:18.775Z,7.88
2022-10-11T07:03:48.510Z,7.94
2022-10-11T07:06:17.951Z,8.01
2022-10-11T07:08:46.146Z,8.06
2022-10-11T07:11:15.194Z,8.13
2022-10-11T07:13:43.390Z,8.31
2022-10-11T07:16:12.396Z,8.41
2022-10-11T07:18:40.589Z,8.50
2022-10-11T07:21:12.342Z,8.60
2022-10-11T07:23:40.858Z,8.66
2022-10-11T07:26:09.571Z,8.79
2022-10-11T07:28:38.348Z,8.89
2022-10-11T07:31:07.006Z,8.95
2022-10-11T07:33:35.471Z,9.04
2022-10-11T07:36:04.163Z,9.11
2022-10-11T07:38:34.153Z,9.22
2022-10-11T07:41:16.598Z,9.32
2022-10-11T07:43:47.944Z,9.41
2022-10-11T07:46:16.186Z,9.55
2022-10-11T07:48:44.676Z,9.60
2022-10-11T07:51:33.450Z,9.67
2022-10-11T07:54:06.989Z,9.78
2022-10-11T07:56:54.518Z,9.91
2022-10-11T07:59:23.559Z,9.99
2022-10-11T08:01:51.794Z,10.14
2022-10-11T08:04:22.143Z,10.22
2022-10-11T08:06:53.354Z,10.21
2022-10-11T08:09:23.169Z,10.45
2022-10-11T08:11:51.715Z,10.45
2022-10-11T08:14:19.928Z,10.54
2022-10-11T08:16:48.148Z,10.66
2022-10-11T08:19:16.392Z,10.77
2022-10-11T08:21:44.904Z,10.81
2022-10-11T08:24:14.442Z,11.00
2022-10-11T08:26:44.274Z,10.99
2022-10-11T08:29:13.462Z,11.03
2022-10-11T08:31:41.674Z,11.18
2022-10-11T08:34:09.888Z,11.27
2022-10-11T08:36:38.732Z,11.33
2022-10-11T08:39:07.550Z,11.35
2022-10-11T08:41:40.517Z,11.45
2022-10-11T08:44:21.150Z,11.59
2022-10-11T08:46:53.222Z,11.60
2022-10-11T08:49:25.939Z,11.61
2022-10-11T08:52:13.178Z,11.75
2022-10-11T08:54:45.009Z,11.82
2022-10-11T08:57:16.239Z,11.84
2022-10-11T08:59:49.182Z,11.88
2022-10-11T09:02:25.995Z,11.99
2022-10-11T09:04:55.510Z,12.16
2022-10-11T09:07:30.948Z,12.19
2022-10-11T09:10:06.720Z,12.16
2022-10-11T09:12:41.112Z,12.34
2022-10-11T09:15:16.285Z,12.30
2022-10-11T09:17:55.655Z,12.35
2022-10-11T09:20:34.841Z,12.40
2022-10-11T09:23:04.757Z,12.50
2022-10-11T09:25:34.565Z,12.62
2022-10-11T09:28:11.904Z,12.68
2022-10-11T09:30:42.692Z,12.89
2022-10-11T09:33:13.553Z,12.79
2022-10-11T09:35:42.887Z,12.77
2022-10-11T09:38:15.498Z,12.73
2022-10-11T09:40:50.018Z,12.87
2022-10-11T09:43:18.242Z,12.77
2022-10-11T09:45:49.795Z,12.91
2022-10-11T09:48:19.909Z,12.84
2022-10-11T09:50:48.135Z,12.99
2022-10-11T09:53:16.391Z,12.74
2022-10-11T09:55:53.423Z,12.77
2022-10-11T09:58:28.079Z,12.72
2022-10-11T10:01:07.583Z,12.58
2022-10-11T10:03:37.156Z,12.64
2022-10-11T10:06:08.470Z,12.72
2022-10-11T10:08:37.215Z,12.68
2022-10-11T10:11:06.234Z,12.79
2022-10-11T10:16:29.990Z,12.90
2022-10-11T10:18:59.240Z,13.04
2022-10-11T10:21:29.791Z,12.90
2022-10-11T10:23:58.213Z,13.00
2022-10-11T10:26:27.053Z,13.17
2022-10-11T10:28:57.055Z,13.34
2022-10-11T10:31:26.263Z,13.28
2022-10-11T10:33:56.146Z,13.21
2022-10-11T10:36:25.368Z,13.28
2022-10-11T10:38:57.708Z,13.27
2022-10-11T10:41:25.907Z,13.35
2022-10-11T10:43:55.750Z,13.35
2022-10-11T10:46:45.398Z,13.40
2022-10-11T10:52:19.606Z,13.40
2022-10-11T10:54:50.336Z,13.37
2022-10-11T10:57:20.383Z,13.47
2022-10-11T11:00:03.798Z,13.55
2022-10-11T11:02:41.283Z,13.78
2022-10-11T11:05:21.833Z,14.02
2022-10-11T11:07:53.118Z,14.15
2022-10-11T11:10:22.945Z,14.22
2022-10-11T11:12:54.524Z,14.28
2022-10-11T11:15:32.070Z,14.21
2022-10-11T11:18:07.967Z,14.39
2022-10-11T11:20:45.009Z,14.22
2022-10-11T11:23:18.207Z,14.08
2022-10-11T11:25:50.044Z,13.91
2022-10-11T11:28:27.019Z,13.82
2022-10-11T11:30:58.951Z,13.80
2022-10-11T11:33:32.108Z,13.95
2022-10-11T11:36:04.176Z,13.78
2022-10-11T11:38:38.684Z,13.67
2022-10-11T11:41:07.454Z,13.86
2022-10-11T11:43:38.060Z,13.99
2022-10-11T11:46:10.218Z,14.24
2022-10-11T11:48:38.697Z,14.27
2022-10-11T11:51:11.526Z,14.47
2022-10-11T11:53:50.167Z,14.67
2022-10-11T11:56:28.134Z,14.80
2022-10-11T11:59:03.511Z,14.60
2022-10-11T12:01:34.423Z,14.85
2022-10-11T12:04:04.558Z,14.77
2022-10-11T12:06:43.736Z,14.42
2022-10-11T12:09:23.455Z,14.27
2022-10-11T12:11:54.567Z,14.16
2022-10-11T12:14:29.687Z,14.25
2022-10-11T12:17:10.647Z,14.09
2022-10-11T12:19:39.376Z,14.21
2022-10-11T12:22:32.191Z,14.18
2022-10-11T12:25:01.343Z,14.32
2022-10-11T12:27:38.675Z,14.24
2022-10-11T12:30:21.480Z,14.24
2022-10-11T12:32:52.933Z,14.31
2022-10-11T12:35:42.790Z,14.27
2022-10-11T12:38:18.460Z,14.56
2022-10-11T12:40:47.964Z,14.72
2022-10-11T12:43:26.736Z,14.64
2022-10-11T12:45:54.942Z,14.83
2022-10-11T12:48:40.764Z,14.87
2022-10-11T12:51:21.646Z,15.06
2022-10-11T12:54:25.369Z,14.85
2022-10-11T12:57:12.455Z,15.01
2022-10-11T12:59:47.086Z,14.92
2022-10-11T13:02:25.312Z,14.81
2022-10-11T13:04:53.565Z,14.58
2022-10-11T13:07:23.712Z,14.70
2022-10-11T13:09:55.454Z,14.67
2022-10-11T13:12:24.603Z,14.44
2022-10-11T13:15:00.784Z,14.41
2022-10-11T13:17:37.260Z,14.39
2022-10-11T13:20:10.598Z,14.48
2022-10-11T13:22:41.289Z,14.44
2022-10-11T13:25:15.675Z,14.49
2022-10-11T13:27:43.964Z,14.36
2022-10-11T13:30:17.205Z,14.38
2022-10-11T13:32:45.725Z,14.43
2022-10-11T13:35:20.972Z,14.72
2022-10-11T13:37:52.112Z,14.62
2022-10-11T13:40:21.993Z,14.73
2022-10-11T13:42:50.884Z,14.79
2022-10-11T13:45:20.898Z,14.71
2022-10-11T13:47:49.217Z,14.55
2022-10-11T13:50:24.215Z,14.52
2022-10-11T13:52:57.099Z,14.76
2022-10-11T13:55:28.614Z,14.69
2022-10-11T13:57:56.881Z,14.68
2022-10-11T14:00:29.439Z,14.48
2022-10-11T14:02:59.845Z,14.55
2022-10-11T14:05:31.370Z,14.63
2022-10-11T14:08:00.344Z,14.57
2022-10-11T14:10:29.932Z,14.77
2022-10-11T14:13:01.616Z,14.74
2022-10-11T14:15:31.091Z,14.66
2022-10-11T14:18:02.321Z,14.68
2022-10-11T14:20:38.388Z,14.40
2022-10-11T14:23:06.741Z,14.45
2022-10-11T14:25:36.635Z,14.55
2022-10-11T14:28:05.879Z,14.69
2022-10-11T14:30:34.244Z,14.64
2022-10-11T14:33:02.810Z,14.57
2022-10-11T14:35:32.615Z,14.63
2022-10-11T14:38:00.860Z,14.68
2022-10-11T14:40:30.873Z,14.69
2022-10-11T14:43:18.931Z,14.85
2022-10-11T14:45:47.170Z,14.81
2022-10-11T14:48:15.582Z,14.78
2022-10-11T14:50:49.291Z,14.69
2022-10-11T14:53:17.803Z,14.56
2022-10-11T14:55:46.217Z,14.41
2022-10-11T14:58:16.757Z,14.47
2022-10-11T15:00:45.593Z,14.62
2022-10-11T15:03:31.014Z,14.55
2022-10-11T15:05:59.245Z,14.57
2022-10-11T15:08:45.726Z,14.39
2022-10-11T15:11:32.687Z,14.40
2022-10-11T15:14:02.429Z,14.37
2022-10-11T15:16:30.719Z,14.45
2022-10-11T15:18:58.910Z,14.40
2022-10-11T15:21:45.784Z,14.25
2022-10-11T15:24:51.511Z,14.18
2022-10-11T15:27:26.511Z,14.15
2022-10-11T15:29:56.400Z,14.10
2022-10-11T15:32:24.659Z,13.94
2022-10-11T15:34:52.891Z,13.94
2022-10-11T15:37:21.081Z,13.97
2022-10-11T15:39:49.498Z,14.02
2022-10-11T15:42:17.863Z,13.97
2022-10-11T15:44:46.089Z,13.89
2022-10-11T15:50:01.004Z,13.65
2022-10-11T15:52:29.475Z,13.48
2022-10-11T15:54:57.692Z,13.44
2022-10-11T15:57:25.956Z,13.28
2022-10-11T15:59:54.207Z,13.32
2022-10-11T16:02:23.817Z,13.15
2022-10-11T16:04:54.223Z,13.17
2022-10-11T16:07:22.538Z,13.01
2022-10-11T16:09:50.776Z,13.00
2022-10-11T16:12:19.327Z,13.07
2022-10-11T16:14:47.511Z,12.85
2022-10-11T16:17:15.879Z,12.90
2022-10-11T16:19:45.508Z,12.85
2022-10-11T16:22:13.904Z,12.81
2022-10-11T16:24:42.166Z,12.84
2022-10-11T16:27:13.251Z,12.84
2022-10-11T16:29:43.792Z,12.82
2022-10-11T16:32:12.072Z,12.81
2022-10-11T16:34:40.320Z,12.74
2022-10-11T16:37:10.118Z,12.67
2022-10-11T16:39:38.442Z,12.54
2022-10-11T16:42:06.751Z,12.35
2022-10-11T16:44:40.302Z,12.45
2022-10-11T16:47:10.190Z,12.37
2022-10-11T16:49:38.553Z,12.27
2022-10-11T16:52:07.137Z,12.23
2022-10-11T16:54:36.728Z,12.15
2022-10-11T16:57:06.509Z,12.11
2022-10-11T16:59:35.243Z,11.97
2022-10-11T17:02:05.194Z,11.91
2022-10-11T17:04:33.450Z,11.84
2022-10-11T17:07:01.635Z,11.83
2022-10-11T17:09:29.852Z,11.69
2022-10-11T17:11:59.428Z,11.65
2022-10-11T17:14:28.603Z,11.60
2022-10-11T17:16:56.841Z,11.58
2022-10-11T17:19:25.080Z,11.45
2022-10-11T17:21:53.335Z,11.37
2022-10-11T17:24:21.526Z,11.32
2022-10-11T17:26:49.712Z,11.25
2022-10-11T17:29:19.296Z,11.27
2022-10-11T17:31:49.398Z,11.16
2022-10-11T17:34:18.118Z,11.11
2022-10-11T17:36:46.308Z,10.99
2022-10-11T17:39:15.990Z,11.00
2022-10-11T17:41:44.374Z,11.01
2022-10-11T17:44:12.633Z,10.93
2022-10-11T17:46:42.216Z,10.91
2022-10-11T17:49:10.438Z,10.79
2022-10-11T17:51:39.090Z,10.74
2022-10-11T17:54:12.419Z,10.59
2022-10-11T17:56:40.940Z,10.53
2022-10-11T17:59:09.171Z,10.45
2022-10-11T18:01:37.497Z,10.48
2022-10-11T18:04:07.318Z,10.45
2022-10-11T18:06:39.134Z,10.41
2022-10-11T18:09:07.478Z,10.35
2022-10-11T18:11:35.736Z,10.34
2022-10-11T18:14:05.272Z,10.30
2022-10-11T18:16:33.530Z,10.18
2022-10-11T18:19:03.327Z,10.10
2022-10-11T18:21:34.720Z,10.06
2022-10-11T18:24:05.660Z,9.94
2022-10-11T18:26:34.015Z,9.93
2022-10-11T18:29:03.809Z,9.86
2022-10-11T18:31:34.083Z,9.68
2022-10-11T18:34:02.360Z,9.76
2022-10-11T18:36:32.781Z,9.71
2022-10-11T18:39:03.225Z,9.80
2022-10-11T18:41:33.592Z,9.76
2022-10-11T18:44:04.387Z,9.74
2022-10-11T18:46:33.012Z,9.70
2022-10-11T18:49:02.474Z,9.64
2022-10-11T18:51:33.086Z,9.58
2022-10-11T18:54:01.625Z,9.56
2022-10-11T18:56:30.265Z,9.56
2022-10-11T18:58:59.848Z,9.62
2022-10-11T19:01:29.451Z,9.56
2022-10-11T19:03:59.213Z,9.42
2022-10-11T19:06:28.184Z,9.47
2022-10-11T19:09:01.111Z,9.36
2022-10-11T19:11:29.641Z,9.39
2022-10-11T19:13:58.172Z,9.26
2022-10-11T19:16:26.561Z,9.34
2022-10-11T19:18:55.067Z,9.29
2022-10-11T19:21:23.360Z,9.34
2022-10-11T19:23:51.595Z,9.30
2022-10-11T19:26:22.176Z,9.31
2022-10-11T19:28:50.414Z,9.31
2022-10-11T19:31:32.662Z,9.29
2022-10-11T19:34:00.969Z,9.31
2022-10-11T19:36:33.937Z,9.20
2022-10-11T19:39:04.881Z,9.24
2022-10-11T19:41:35.198Z,9.08
2022-10-11T19:44:03.407Z,9.24
2022-10-11T19:46:50.539Z,9.19
2022-10-11T19:49:38.454Z,8.92
2022-10-11T19:52:06.740Z,9.02
2022-10-11T19:54:34.935Z,9.09
2022-10-11T19:57:04.602Z,9.13
2022-10-11T19:59:32.775Z,9.18
2022-10-11T20:02:00.986Z,9.15
2022-10-11T20:07:17.974Z,9.10
2022-10-11T20:09:46.239Z,9.18
2022-10-11T20:12:16.018Z,9.21
2022-10-11T20:14:44.468Z,9.24
2022-10-11T20:17:12.730Z,9.21
2022-10-11T20:19:40.937Z,9.22
2022-10-11T20:22:09.421Z,9.21
2022-10-11T20:24:37.609Z,9.15
2022-10-11T20:27:06.411Z,9.12
2022-10-11T20:29:36.127Z,9.12
2022-10-11T20:34:50.166Z,8.93
2022-10-11T20:37:18.382Z,8.97
2022-10-11T20:39:46.557Z,8.97
2022-10-11T20:42:15.044Z,8.99
2022-10-11T20:44:44.916Z,8.94
2022-10-11T20:47:13.121Z,8.94
2022-10-11T20:49:41.338Z,8.91
2022-10-11T20:52:09.622Z,8.93
2022-10-11T20:54:38.160Z,8.87
2022-10-11T20:57:06.397Z,8.88
2022-10-11T20:59:34.666Z,8.86
2022-10-11T21:02:04.280Z,8.75
2022-10-11T21:04:32.535Z,8.73
2022-10-11T21:07:01.048Z,8.79
2022-10-11T21:09:29.352Z,8.72
2022-10-11T21:11:57.547Z,8.69
2022-10-11T21:14:25.876Z,8.70
2022-10-11T21:16:54.411Z,8.69
2022-10-11T21:19:42.598Z,8.71
2022-10-11T21:22:10.801Z,8.60
2022-10-11T21:24:39.293Z,8.58
2022-10-11T21:27:07.496Z,8.57
2022-10-11T21:29:35.716Z,8.58
2022-10-11T21:32:04.414Z,8.60
2022-10-11T21:34:33.992Z,8.60
2022-10-11T21:37:02.203Z,8.63
2022-10-11T21:39:30.683Z,8.63
2022-10-11T21:41:58.954Z,8.67
2022-10-11T21:44:27.157Z,8.61
2022-10-11T21:47:06.594Z,8.65
2022-10-11T21:49:37.508Z,8.57
2022-10-11T21:52:05.978Z,8.65
2022-10-11T21:54:34.196Z,8.59
2022-10-11T21:57:02.839Z,8.63
2022-10-11T21:59:31.160Z,8.62
2022-10-11T22:02:17.602Z,8.63
2022-10-11T22:04:47.173Z,8.65
2022-10-11T22:07:15.370Z,8.63
2022-10-11T22:09:43.560Z,8.63
2022-10-11T22:12:11.740Z,8.56
2022-10-11T22:14:39.947Z,8.62
2022-10-11T22:17:08.717Z,8.66
2022-10-11T22:19:36.891Z,8.64
2022-10-11T22:22:06.461Z,8.56
2022-10-11T22:24:34.695Z,8.59
2022-10-11T22:27:03.165Z,8.57
2022-10-11T22:29:34.148Z,8.66
2022-10-11T22:32:02.695Z,8.65
2022-10-11T22:34:32.298Z,8.57
2022-10-11T22:37:00.542Z,8.52
2022-10-11T22:39:30.774Z,8.52
2022-10-11T22:41:59.308Z,8.36
2022-10-11T22:44:27.578Z,8.50
2022-10-11T22:46:56.182Z,8.48
2022-10-11T22:49:24.385Z,8.48
2022-10-11T22:51:52.566Z,8.45
2022-10-11T22:54:20.770Z,8.17
2022-10-11T22:56:50.601Z,8.35
2022-10-11T22:59:18.829Z,8.29
2022-10-11T23:01:47.009Z,8.35
2022-10-11T23:04:16.543Z,8.45
2022-10-11T23:06:45.753Z,8.35
2022-10-11T23:09:13.979Z,8.46
2022-10-11T23:11:42.182Z,8.38
2022-10-11T23:14:11.919Z,8.43
2022-10-11T23:16:40.132Z,8.45
2022-10-11T23:19:08.700Z,8.46
2022-10-11T23:21:36.907Z,8.45
2022-10-11T23:24:05.639Z,8.45
2022-10-11T23:26:33.838Z,8.42
2022-10-11T23:38:24.477Z,8.27
2022-10-11T23:40:52.670Z,8.27
2022-10-11T23:43:20.936Z,8.28
2022-10-11T23:45:49.592Z,8.31
2022-10-11T23:48:17.830Z,8.35
2022-10-11T23:50:47.344Z,8.33
2022-10-11T23:53:15.485Z,8.30
2022-10-11T23:55:45.308Z,8.33
2022-10-11T23:58:13.485Z,8.34
